Time;durP1;ratioP1;P1;durP2;ratioP2;P2;SDS_P1;SDS_P2;PMS_P1;PMS_P2;Temp;Humidity;BMP_temperature;BMP_pressure;BME280_temperature;BME280_humidity;BME280_pressure;Samples;Min_cycle;Max_cycle;Signal;HPM_P1;HPM_P2
2021/09/19 00:00:31;0.00;0.00;0.62;0.00;0.00;0.62;2.73;1.80;;;26.40;36.90;;;;;;2249305;61;20384;-61
2021/09/19 00:03:15;0.00;0.00;0.62;0.00;0.00;0.62;3.50;1.90;;;26.40;36.80;;;;;;2249985;61;20441;-61
2021/09/19 00:06:01;0.00;0.00;0.62;0.00;0.00;0.62;3.10;2.10;;;26.40;36.80;;;;;;2249022;61;20396;-61
2021/09/19 00:08:46;0.00;0.00;0.62;0.00;0.00;0.62;2.30;1.90;;;26.40;36.80;;;;;;2249751;61;20586;-65
2021/09/19 00:11:30;0.00;0.00;0.62;0.00;0.00;0.62;2.53;2.10;;;26.40;36.80;;;;;;2249942;61;20380;-57
2021/09/19 00:14:16;0.00;0.00;0.62;0.00;0.00;0.62;2.03;1.83;;;26.40;36.70;;;;;;2249624;61;20418;-60
2021/09/19 00:17:00;0.00;0.00;0.62;0.00;0.00;0.62;2.70;2.27;;;26.40;36.70;;;;;;2250115;61;20420;-60
2021/09/19 00:19:45;0.00;0.00;0.62;0.00;0.00;0.62;2.33;2.13;;;26.40;36.60;;;;;;2249775;61;20438;-59
2021/09/19 00:22:32;0.00;0.00;0.62;0.00;0.00;0.62;2.60;2.20;;;26.40;36.60;;;;;;2249408;61;20388;-60
2021/09/19 00:25:17;0.00;0.00;0.62;0.00;0.00;0.62;3.47;2.10;;;26.40;36.60;;;;;;2250216;61;20419;-59
2021/09/19 00:28:02;0.00;0.00;0.62;0.00;0.00;0.62;3.80;2.70;;;26.40;36.60;;;;;;2249195;61;20404;-59
2021/09/19 00:30:47;0.00;0.00;0.62;0.00;0.00;0.62;4.50;2.80;;;26.40;36.60;;;;;;2249861;61;20373;-60
2021/09/19 00:33:32;0.00;0.00;0.62;0.00;0.00;0.62;3.50;2.80;;;26.40;36.60;;;;;;2249666;61;20424;-59
2021/09/19 00:36:16;0.00;0.00;0.62;0.00;0.00;0.62;2.27;1.97;;;26.40;36.60;;;;;;2249491;61;20688;-60
2021/09/19 00:39:02;0.00;0.00;0.62;0.00;0.00;0.62;3.30;2.33;;;26.40;36.50;;;;;;2250012;61;20405;-60
2021/09/19 00:41:47;0.00;0.00;0.62;0.00;0.00;0.62;2.90;2.30;;;26.40;36.50;;;;;;2249670;61;20361;-59
2021/09/19 00:44:31;0.00;0.00;0.62;0.00;0.00;0.62;2.50;2.30;;;26.40;36.50;;;;;;2249186;61;20756;-60
2021/09/19 00:47:16;0.00;0.00;0.62;0.00;0.00;0.62;3.43;2.57;;;26.40;36.50;;;;;;2249988;61;20381;-59
2021/09/19 00:50:01;0.00;0.00;0.62;0.00;0.00;0.62;2.47;2.10;;;26.40;36.50;;;;;;2249601;61;20400;-60
2021/09/19 00:52:47;0.00;0.00;0.62;0.00;0.00;0.62;3.13;2.67;;;26.40;36.50;;;;;;2249783;61;20393;-60
2021/09/19 00:55:33;0.00;0.00;0.62;0.00;0.00;0.62;3.23;2.40;;;26.40;36.50;;;;;;2249581;61;20473;-60
2021/09/19 00:58:18;0.00;0.00;0.62;0.00;0.00;0.62;2.90;2.40;;;26.40;36.40;;;;;;2249377;61;20617;-60
2021/09/19 01:01:03;0.00;0.00;0.62;0.00;0.00;0.62;2.57;2.23;;;26.40;36.40;;;;;;2249715;61;20415;-60
2021/09/19 01:03:48;0.00;0.00;0.62;0.00;0.00;0.62;3.60;2.73;;;26.40;36.40;;;;;;2249559;61;20357;-60
2021/09/19 01:06:34;0.00;0.00;0.62;0.00;0.00;0.62;2.80;2.50;;;26.40;36.50;;;;;;2249337;61;20769;-60
2021/09/19 01:09:18;0.00;0.00;0.62;0.00;0.00;0.62;2.90;2.23;;;26.40;36.50;;;;;;2249702;61;20377;-59
2021/09/19 01:12:07;0.00;0.00;0.62;0.00;0.00;0.62;3.00;2.70;;;26.40;36.50;;;;;;2249643;61;20442;-60
2021/09/19 01:14:53;0.00;0.00;0.62;0.00;0.00;0.62;2.70;2.17;;;26.40;36.50;;;;;;2249620;61;20783;-60
2021/09/19 01:17:39;0.00;0.00;0.62;0.00;0.00;0.62;3.73;2.83;;;26.40;36.50;;;;;;2249628;61;20420;-60
2021/09/19 01:20:25;0.00;0.00;0.62;0.00;0.00;0.62;2.93;2.40;;;26.40;36.50;;;;;;2249449;61;20365;-60
2021/09/19 01:23:12;0.00;0.00;0.62;0.00;0.00;0.62;3.13;2.30;;;26.40;36.50;;;;;;2249610;61;20384;-59
2021/09/19 01:25:58;0.00;0.00;0.62;0.00;0.00;0.62;2.70;2.50;;;26.40;36.60;;;;;;2249484;61;20392;-59
2021/09/19 01:28:43;0.00;0.00;0.62;0.00;0.00;0.62;3.80;2.50;;;26.30;36.50;;;;;;2249344;61;20372;-59
2021/09/19 01:31:28;0.00;0.00;0.62;0.00;0.00;0.62;3.07;2.10;;;26.30;36.50;;;;;;2249761;61;20392;-59
2021/09/19 01:34:13;0.00;0.00;0.62;0.00;0.00;0.62;2.70;2.40;;;26.30;36.40;;;;;;2249209;61;20412;-59
2021/09/19 01:36:57;0.00;0.00;0.62;0.00;0.00;0.62;2.67;2.47;;;26.30;36.50;;;;;;2249509;61;20391;-59
2021/09/19 01:39:42;0.00;0.00;0.62;0.00;0.00;0.62;3.10;2.53;;;26.30;36.40;;;;;;2249839;61;20356;-60
2021/09/19 01:42:29;0.00;0.00;0.62;0.00;0.00;0.62;3.03;2.43;;;26.40;36.50;;;;;;2249264;61;20357;-59
2021/09/19 01:45:13;0.00;0.00;0.62;0.00;0.00;0.62;2.63;2.43;;;26.30;36.40;;;;;;2249559;61;20376;-59
2021/09/19 01:47:59;0.00;0.00;0.62;0.00;0.00;0.62;2.90;2.60;;;26.30;36.40;;;;;;2249734;61;20411;-59
2021/09/19 01:50:44;0.00;0.00;0.62;0.00;0.00;0.62;3.00;2.70;;;26.30;36.40;;;;;;2249047;61;20411;-59
2021/09/19 01:53:29;0.00;0.00;0.62;0.00;0.00;0.62;3.17;2.77;;;26.30;36.30;;;;;;2249659;61;20803;-59
2021/09/19 01:56:13;0.00;0.00;0.62;0.00;0.00;0.62;3.13;2.80;;;26.30;36.40;;;;;;2249541;61;20766;-58
2021/09/19 01:59:00;0.00;0.00;0.62;0.00;0.00;0.62;2.90;2.30;;;26.30;36.30;;;;;;2249143;61;20349;-60
2021/09/19 02:01:45;0.00;0.00;0.62;0.00;0.00;0.62;3.33;2.90;;;26.30;36.40;;;;;;2249797;61;20408;-60
2021/09/19 02:04:31;0.00;0.00;0.62;0.00;0.00;0.62;3.17;2.80;;;26.30;36.30;;;;;;2249123;61;20380;-59
2021/09/19 02:07:16;0.00;0.00;0.62;0.00;0.00;0.62;4.23;3.20;;;26.30;36.40;;;;;;2249671;61;20364;-60
2021/09/19 02:10:00;0.00;0.00;0.62;0.00;0.00;0.62;2.93;2.60;;;26.30;36.30;;;;;;2249444;61;20627;-60
2021/09/19 02:12:45;0.00;0.00;0.62;0.00;0.00;0.62;2.13;1.93;;;26.30;36.40;;;;;;2249120;61;20681;-59
2021/09/19 02:15:31;0.00;0.00;0.62;0.00;0.00;0.62;2.90;2.60;;;26.30;36.30;;;;;;2249680;61;20428;-60
2021/09/19 02:18:16;0.00;0.00;0.62;0.00;0.00;0.62;2.73;2.53;;;26.30;36.30;;;;;;2250096;61;20361;-60
2021/09/19 02:21:02;0.00;0.00;0.62;0.00;0.00;0.62;3.07;2.77;;;26.30;36.30;;;;;;2249838;61;20771;-60
2021/09/19 02:23:46;0.00;0.00;0.62;0.00;0.00;0.62;3.60;2.77;;;26.30;36.30;;;;;;2250388;61;20396;-59
2021/09/19 02:26:31;0.00;0.00;0.62;0.00;0.00;0.62;3.10;2.60;;;26.30;36.30;;;;;;2249562;61;20645;-60
2021/09/19 02:29:16;0.00;0.00;0.62;0.00;0.00;0.62;4.03;2.40;;;26.30;36.30;;;;;;2250234;61;20405;-60
2021/09/19 02:32:02;0.00;0.00;0.62;0.00;0.00;0.62;2.80;2.40;;;26.30;36.30;;;;;;2250082;61;20385;-59
2021/09/19 02:34:47;0.00;0.00;0.62;0.00;0.00;0.62;3.17;2.50;;;26.30;36.30;;;;;;2249743;61;20764;-59
2021/09/19 02:37:31;0.00;0.00;0.62;0.00;0.00;0.62;3.20;2.37;;;26.30;36.30;;;;;;2250383;61;20345;-59
2021/09/19 02:40:18;0.00;0.00;0.62;0.00;0.00;0.62;2.50;2.30;;;26.30;36.30;;;;;;2249971;61;20422;-60
2021/09/19 02:43:03;0.00;0.00;0.62;0.00;0.00;0.62;3.60;2.43;;;26.30;36.30;;;;;;2249603;61;20353;-60
2021/09/19 02:45:49;0.00;0.00;0.62;0.00;0.00;0.62;3.13;2.67;;;26.30;36.20;;;;;;2250302;61;20452;-60
2021/09/19 02:48:35;0.00;0.00;0.62;0.00;0.00;0.62;2.40;2.20;;;26.30;36.20;;;;;;2249814;61;20361;-60
2021/09/19 02:51:20;0.00;0.00;0.62;0.00;0.00;0.62;3.00;2.67;;;26.30;36.20;;;;;;2250003;61;20415;-59
2021/09/19 02:54:04;0.00;0.00;0.62;0.00;0.00;0.62;4.60;2.73;;;26.30;36.20;;;;;;2249896;61;20424;-60
2021/09/19 02:56:49;0.00;0.00;0.62;0.00;0.00;0.62;4.50;2.93;;;26.30;36.10;;;;;;2249912;61;20433;-60
2021/09/19 02:59:34;0.00;0.00;0.62;0.00;0.00;0.62;4.40;2.20;;;26.20;36.10;;;;;;2250177;61;20372;-59
2021/09/19 03:02:18;0.00;0.00;0.62;0.00;0.00;0.62;3.00;2.20;;;26.20;36.10;;;;;;2250021;61;20372;-60
2021/09/19 03:05:06;0.00;0.00;0.62;0.00;0.00;0.62;3.10;2.43;;;26.20;36.00;;;;;;2249459;61;20381;-60
2021/09/19 03:07:54;0.00;0.00;0.62;0.00;0.00;0.62;2.63;2.37;;;26.20;36.00;;;;;;2250243;61;20373;-60
2021/09/19 03:10:38;0.00;0.00;0.62;0.00;0.00;0.62;2.80;2.30;;;26.20;36.00;;;;;;2250011;61;20360;-60
2021/09/19 03:13:23;0.00;0.00;0.62;0.00;0.00;0.62;3.53;2.20;;;26.20;36.00;;;;;;2249898;61;20799;-60
2021/09/19 03:16:08;0.00;0.00;0.62;0.00;0.00;0.62;4.23;2.43;;;26.20;35.90;;;;;;2249936;61;20403;-59
2021/09/19 03:18:52;0.00;0.00;0.62;0.00;0.00;0.62;3.40;2.80;;;26.20;35.90;;;;;;2249750;61;20365;-59
2021/09/19 03:21:38;0.00;0.00;0.62;0.00;0.00;0.62;2.73;2.17;;;26.20;35.90;;;;;;2249964;61;20393;-59
2021/09/19 03:24:22;0.00;0.00;0.62;0.00;0.00;0.62;5.83;2.80;;;26.20;35.80;;;;;;2249889;61;20372;-60
2021/09/19 03:27:07;0.00;0.00;0.62;0.00;0.00;0.62;2.33;2.00;;;26.20;35.90;;;;;;2249508;61;20725;-60
2021/09/19 03:29:52;0.00;0.00;0.62;0.00;0.00;0.62;3.13;2.50;;;26.20;35.80;;;;;;2250116;61;20391;-60
2021/09/19 03:32:37;0.00;0.00;0.62;0.00;0.00;0.62;2.50;2.30;;;26.20;35.80;;;;;;2249987;61;20454;-60
2021/09/19 03:35:21;0.00;0.00;0.62;0.00;0.00;0.62;2.47;2.27;;;26.20;35.80;;;;;;2249659;61;20380;-58
2021/09/19 03:38:07;0.00;0.00;0.62;0.00;0.00;0.62;4.27;2.47;;;26.20;35.80;;;;;;2250144;61;20582;-58
2021/09/19 03:40:51;0.00;0.00;0.62;0.00;0.00;0.62;3.20;2.90;;;26.20;35.80;;;;;;2249799;61;20364;-58
2021/09/19 03:43:36;0.00;0.00;0.62;0.00;0.00;0.62;2.80;2.40;;;26.20;35.80;;;;;;2249811;61;20357;-60
2021/09/19 03:46:20;0.00;0.00;0.62;0.00;0.00;0.62;3.17;2.37;;;26.20;35.80;;;;;;2249866;61;20424;-60
2021/09/19 03:49:05;0.00;0.00;0.62;0.00;0.00;0.62;3.23;2.40;;;26.10;35.70;;;;;;2249458;61;20360;-58
2021/09/19 03:51:49;0.00;0.00;0.62;0.00;0.00;0.62;4.20;2.40;;;26.10;35.70;;;;;;2250304;61;20388;-60
2021/09/19 03:54:35;0.00;0.00;0.62;0.00;0.00;0.62;3.00;2.70;;;26.10;35.70;;;;;;2249844;61;20380;-60
2021/09/19 03:57:20;0.00;0.00;0.62;0.00;0.00;0.62;3.43;2.47;;;26.10;35.70;;;;;;2249417;61;20373;-60
2021/09/19 04:00:07;0.00;0.00;0.62;0.00;0.00;0.62;3.40;2.70;;;26.10;35.70;;;;;;2250051;61;20465;-58
2021/09/19 04:02:56;0.00;0.00;0.62;0.00;0.00;0.62;2.93;2.50;;;26.10;35.70;;;;;;2249494;61;20437;-60
2021/09/19 04:05:41;0.00;0.00;0.62;0.00;0.00;0.62;8.70;3.17;;;26.10;35.70;;;;;;2249929;61;20380;-61
2021/09/19 04:08:25;0.00;0.00;0.62;0.00;0.00;0.62;2.63;2.40;;;26.10;35.70;;;;;;2249826;61;20356;-60
2021/09/19 04:11:11;0.00;0.00;0.62;0.00;0.00;0.62;2.77;2.30;;;26.10;35.70;;;;;;2249319;61;20357;-60
2021/09/19 04:13:56;0.00;0.00;0.62;0.00;0.00;0.62;2.90;2.37;;;26.10;35.70;;;;;;2250113;61;20376;-60
2021/09/19 04:16:40;0.00;0.00;0.62;0.00;0.00;0.62;2.73;2.43;;;26.10;35.60;;;;;;2249769;61;20376;-60
2021/09/19 04:19:25;0.00;0.00;0.62;0.00;0.00;0.62;3.33;2.90;;;26.10;35.60;;;;;;2249427;61;20416;-60
2021/09/19 04:22:09;0.00;0.00;0.62;0.00;0.00;0.62;3.87;2.70;;;26.10;35.60;;;;;;2250098;61;20353;-59
2021/09/19 04:24:54;0.00;0.00;0.62;0.00;0.00;0.62;3.00;2.70;;;26.10;35.60;;;;;;2248737;61;20376;-59
2021/09/19 04:27:41;0.00;0.00;0.62;0.00;0.00;0.62;3.97;2.70;;;26.10;35.60;;;;;;2249907;61;20345;-57
2021/09/19 04:30:25;0.00;0.00;0.62;0.00;0.00;0.62;3.00;2.70;;;26.10;35.60;;;;;;2249799;61;20792;-59
2021/09/19 04:33:10;0.00;0.00;0.62;0.00;0.00;0.62;3.07;2.60;;;26.10;35.60;;;;;;2249435;61;20384;-59
2021/09/19 04:35:55;0.00;0.00;0.62;0.00;0.00;0.62;2.60;2.17;;;26.00;35.50;;;;;;2250028;61;20385;-60
2021/09/19 04:38:40;0.00;0.00;0.62;0.00;0.00;0.62;4.17;2.77;;;26.00;35.50;;;;;;2249526;61;20356;-60
2021/09/19 04:41:24;0.00;0.00;0.62;0.00;0.00;0.62;2.97;2.37;;;26.00;35.50;;;;;;2249418;61;20369;-60
2021/09/19 04:44:10;0.00;0.00;0.62;0.00;0.00;0.62;2.60;2.40;;;26.00;35.50;;;;;;2249937;61;20356;-60
2021/09/19 04:46:54;0.00;0.00;0.62;0.00;0.00;0.62;2.70;2.50;;;26.00;35.50;;;;;;2249507;61;20368;-60
2021/09/19 04:49:39;0.00;0.00;0.62;0.00;0.00;0.62;3.87;2.50;;;26.10;35.60;;;;;;2249690;61;20717;-60
2021/09/19 04:52:24;0.00;0.00;0.62;0.00;0.00;0.62;3.20;2.53;;;26.00;35.40;;;;;;2249639;61;20387;-60
2021/09/19 04:55:09;0.00;0.00;0.62;0.00;0.00;0.62;2.67;2.47;;;26.00;35.40;;;;;;2249389;61;20404;-60
2021/09/19 04:57:54;0.00;0.00;0.62;0.00;0.00;0.62;3.10;2.50;;;26.00;35.40;;;;;;2249870;61;20369;-59
2021/09/19 05:00:40;0.00;0.00;0.62;0.00;0.00;0.62;3.73;2.73;;;26.00;35.40;;;;;;2249582;61;20352;-60
2021/09/19 05:03:24;0.00;0.00;0.62;0.00;0.00;0.62;3.10;2.70;;;26.00;35.40;;;;;;2249230;61;20436;-59
2021/09/19 05:06:09;0.00;0.00;0.62;0.00;0.00;0.62;3.33;2.77;;;26.00;35.40;;;;;;2249924;61;20400;-59
2021/09/19 05:08:53;0.00;0.00;0.62;0.00;0.00;0.62;2.77;2.27;;;26.00;35.40;;;;;;2249573;61;20368;-59
2021/09/19 05:11:37;0.00;0.00;0.62;0.00;0.00;0.62;4.10;2.67;;;26.00;35.30;;;;;;2249788;61;20404;-60
2021/09/19 05:14:22;0.00;0.00;0.62;0.00;0.00;0.62;2.70;2.10;;;26.00;35.40;;;;;;2249607;61;20376;-59
2021/09/19 05:17:08;0.00;0.00;0.62;0.00;0.00;0.62;3.27;2.47;;;26.00;35.30;;;;;;2249455;61;20380;-59
2021/09/19 05:19:52;0.00;0.00;0.62;0.00;0.00;0.62;3.50;3.00;;;26.00;35.30;;;;;;2249733;61;20581;-59
2021/09/19 05:22:37;0.00;0.00;0.62;0.00;0.00;0.62;2.87;2.30;;;26.00;35.30;;;;;;2249630;61;20365;-60
2021/09/19 05:25:21;0.00;0.00;0.62;0.00;0.00;0.62;3.00;2.80;;;26.00;35.30;;;;;;2249166;61;20597;-59
2021/09/19 05:28:07;0.00;0.00;0.62;0.00;0.00;0.62;2.30;2.00;;;26.00;35.30;;;;;;2249880;61;20396;-59
2021/09/19 05:30:52;0.00;0.00;0.62;0.00;0.00;0.62;2.90;2.40;;;25.90;35.30;;;;;;2249537;61;20413;-59
2021/09/19 05:33:38;0.00;0.00;0.62;0.00;0.00;0.62;3.00;2.20;;;26.00;35.30;;;;;;2249183;61;20413;-60
2021/09/19 05:36:22;0.00;0.00;0.62;0.00;0.00;0.62;3.20;2.50;;;26.00;35.30;;;;;;2249772;61;20578;-58
2021/09/19 05:39:07;0.00;0.00;0.62;0.00;0.00;0.62;3.53;2.63;;;26.00;35.30;;;;;;2249413;61;20356;-57
2021/09/19 05:41:51;0.00;0.00;0.62;0.00;0.00;0.62;3.50;2.70;;;25.90;35.20;;;;;;2249625;61;20728;-59
2021/09/19 05:44:36;0.00;0.00;0.62;0.00;0.00;0.62;3.37;2.90;;;25.90;35.20;;;;;;2249469;61;20385;-59
2021/09/19 05:47:21;0.00;0.00;0.62;0.00;0.00;0.62;3.10;2.40;;;26.00;35.30;;;;;;2249266;61;20447;-60
2021/09/19 05:50:07;0.00;0.00;0.62;0.00;0.00;0.62;2.80;2.40;;;25.90;35.20;;;;;;2249668;61;20353;-59
2021/09/19 05:52:52;0.00;0.00;0.62;0.00;0.00;0.62;3.87;3.30;;;25.90;35.20;;;;;;2250100;61;20381;-58
2021/09/19 05:55:37;0.00;0.00;0.62;0.00;0.00;0.62;3.00;2.40;;;25.90;35.20;;;;;;2249884;61;20388;-59
2021/09/19 05:58:22;0.00;0.00;0.62;0.00;0.00;0.62;2.60;2.40;;;25.90;35.20;;;;;;2250498;61;20357;-59
2021/09/19 06:01:07;0.00;0.00;0.62;0.00;0.00;0.62;2.43;2.23;;;25.90;35.20;;;;;;2249726;61;20360;-60
2021/09/19 06:03:51;0.00;0.00;0.62;0.00;0.00;0.62;3.40;2.50;;;25.90;35.20;;;;;;2250231;61;20723;-59
2021/09/19 06:06:37;0.00;0.00;0.62;0.00;0.00;0.62;3.37;2.57;;;25.90;35.20;;;;;;2250225;61;20356;-60
2021/09/19 06:09:21;0.00;0.00;0.62;0.00;0.00;0.62;2.73;2.13;;;25.90;35.20;;;;;;2249858;61;20484;-59
2021/09/19 06:12:07;0.00;0.00;0.62;0.00;0.00;0.62;3.17;2.87;;;25.90;35.20;;;;;;2250384;61;20380;-59
2021/09/19 06:14:52;0.00;0.00;0.62;0.00;0.00;0.62;3.60;2.87;;;25.90;35.20;;;;;;2250067;61;20832;-60
2021/09/19 06:17:36;0.00;0.00;0.62;0.00;0.00;0.62;3.60;2.70;;;25.80;35.10;;;;;;2249563;61;20385;-60
2021/09/19 06:20:21;0.00;0.00;0.62;0.00;0.00;0.62;2.93;2.50;;;25.80;35.10;;;;;;2250439;61;20690;-56
2021/09/19 06:23:07;0.00;0.00;0.62;0.00;0.00;0.62;4.00;2.93;;;25.90;35.20;;;;;;2250060;61;20405;-58
2021/09/19 06:25:52;0.00;0.00;0.62;0.00;0.00;0.62;3.10;2.77;;;25.90;35.10;;;;;;2249963;61;20504;-59
2021/09/19 06:28:37;0.00;0.00;0.62;0.00;0.00;0.62;2.83;2.50;;;25.80;35.00;;;;;;2249741;61;20388;-56
2021/09/19 06:31:22;0.00;0.00;0.62;0.00;0.00;0.62;3.00;2.63;;;25.90;35.00;;;;;;2249769;61;20360;-55
2021/09/19 06:34:07;0.00;0.00;0.62;0.00;0.00;0.62;3.27;2.87;;;25.80;34.90;;;;;;2250154;61;20392;-58
2021/09/19 06:36:51;0.00;0.00;0.62;0.00;0.00;0.62;2.97;2.40;;;25.80;34.90;;;;;;2250095;61;20585;-57
2021/09/19 06:39:37;0.00;0.00;0.62;0.00;0.00;0.62;3.00;2.57;;;25.80;34.90;;;;;;2249475;61;20365;-54
2021/09/19 06:42:22;0.00;0.00;0.62;0.00;0.00;0.62;2.50;2.20;;;25.80;34.90;;;;;;2250641;61;20505;-57
2021/09/19 06:45:08;0.00;0.00;0.62;0.00;0.00;0.62;2.53;2.27;;;25.80;34.90;;;;;;2249928;61;20781;-57
2021/09/19 06:47:52;0.00;0.00;0.62;0.00;0.00;0.62;3.30;3.00;;;25.80;34.80;;;;;;2250083;61;20404;-58
2021/09/19 06:50:37;0.00;0.00;0.62;0.00;0.00;0.62;2.50;2.30;;;25.80;34.80;;;;;;2249990;61;20432;-57
2021/09/19 06:53:21;0.00;0.00;0.62;0.00;0.00;0.62;2.60;2.40;;;25.80;34.80;;;;;;2249693;61;20513;-57
2021/09/19 06:56:07;0.00;0.00;0.62;0.00;0.00;0.62;2.97;2.50;;;25.80;34.80;;;;;;2250126;61;20428;-59
2021/09/19 06:58:52;0.00;0.00;0.62;0.00;0.00;0.62;3.23;2.67;;;25.80;34.80;;;;;;2249957;61;20861;-59
2021/09/19 07:01:36;0.00;0.00;0.62;0.00;0.00;0.62;2.80;2.57;;;25.80;34.80;;;;;;2249492;61;20574;-59
2021/09/19 07:04:21;0.00;0.00;0.62;0.00;0.00;0.62;3.30;2.97;;;25.80;34.80;;;;;;2250176;61;20373;-59
2021/09/19 07:07:05;0.00;0.00;0.62;0.00;0.00;0.62;3.80;2.60;;;25.70;34.70;;;;;;2250056;61;20365;-59
2021/09/19 07:09:50;0.00;0.00;0.62;0.00;0.00;0.62;2.90;2.10;;;25.80;34.80;;;;;;2249483;61;20373;-59
2021/09/19 07:12:36;0.00;0.00;0.62;0.00;0.00;0.62;3.40;2.70;;;25.80;34.80;;;;;;2250325;61;20385;-59
2021/09/19 07:15:20;0.00;0.00;0.62;0.00;0.00;0.62;2.47;2.20;;;25.80;34.70;;;;;;2249512;61;20388;-60
2021/09/19 07:18:05;0.00;0.00;0.62;0.00;0.00;0.62;2.80;2.60;;;25.80;34.70;;;;;;2250018;61;20365;-57
2021/09/19 07:20:54;0.00;0.00;0.62;0.00;0.00;0.62;4.03;2.50;;;25.80;34.70;;;;;;2249920;61;20384;-59
2021/09/19 07:23:39;0.00;0.00;0.62;0.00;0.00;0.62;2.90;2.37;;;25.70;34.70;;;;;;2249316;61;20725;-60
2021/09/19 07:26:24;0.00;0.00;0.62;0.00;0.00;0.62;2.50;2.30;;;25.70;34.70;;;;;;2250063;61;20756;-60
2021/09/19 07:29:10;0.00;0.00;0.62;0.00;0.00;0.62;3.43;2.80;;;25.80;34.70;;;;;;2249810;61;20361;-60
2021/09/19 07:31:55;0.00;0.00;0.62;0.00;0.00;0.62;2.73;2.40;;;25.80;34.80;;;;;;2249588;61;20432;-60
2021/09/19 07:34:41;0.00;0.00;0.62;0.00;0.00;0.62;3.20;2.67;;;25.70;34.80;;;;;;2250081;61;20760;-60
2021/09/19 07:37:25;0.00;0.00;0.62;0.00;0.00;0.62;2.87;2.57;;;25.70;34.80;;;;;;2249708;61;20388;-60
2021/09/19 07:40:12;0.00;0.00;0.62;0.00;0.00;0.62;2.77;2.53;;;25.70;34.80;;;;;;2250031;61;20353;-61
2021/09/19 07:42:59;0.00;0.00;0.62;0.00;0.00;0.62;2.30;2.00;;;25.80;34.90;;;;;;2249729;61;20698;-60
2021/09/19 07:45:46;0.00;0.00;0.62;0.00;0.00;0.62;3.07;2.20;;;25.80;34.90;;;;;;2249394;61;20493;-61
2021/09/19 07:48:31;0.00;0.00;0.62;0.00;0.00;0.62;2.43;2.20;;;25.70;34.90;;;;;;2250132;61;20489;-58
2021/09/19 07:51:16;0.00;0.00;0.62;0.00;0.00;0.62;2.77;2.03;;;25.80;34.90;;;;;;2249716;61;20652;-59
2021/09/19 07:54:01;0.00;0.00;0.62;0.00;0.00;0.62;2.70;2.50;;;25.80;34.90;;;;;;2249536;61;20444;-60
2021/09/19 07:56:46;0.00;0.00;0.62;0.00;0.00;0.62;2.67;2.40;;;25.80;34.90;;;;;;2250168;61;20841;-60
2021/09/19 07:59:31;0.00;0.00;0.62;0.00;0.00;0.62;3.97;2.53;;;25.80;34.80;;;;;;2249259;61;20400;-61
2021/09/19 08:02:17;0.00;0.00;0.62;0.00;0.00;0.62;2.57;2.27;;;25.80;34.80;;;;;;2249924;61;20400;-55
2021/09/19 08:05:02;0.00;0.00;0.62;0.00;0.00;0.62;5.60;2.70;;;25.80;34.80;;;;;;2249620;61;20397;-60
2021/09/19 08:07:47;0.00;0.00;0.62;0.00;0.00;0.62;2.80;2.00;;;25.80;34.80;;;;;;2249254;61;20389;-62
2021/09/19 08:10:31;0.00;0.00;0.62;0.00;0.00;0.62;2.40;2.20;;;25.80;34.80;;;;;;2249912;61;20404;-61
2021/09/19 08:13:16;0.00;0.00;0.62;0.00;0.00;0.62;3.10;2.17;;;25.80;34.80;;;;;;2249445;61;20376;-62
2021/09/19 08:16:00;0.00;0.00;0.62;0.00;0.00;0.62;3.60;2.20;;;25.80;34.80;;;;;;2249322;61;20404;-62
2021/09/19 08:18:46;0.00;0.00;0.62;0.00;0.00;0.62;2.93;2.60;;;25.80;34.80;;;;;;2249983;61;20578;-62
2021/09/19 08:21:31;0.00;0.00;0.62;0.00;0.00;0.62;3.00;2.37;;;25.80;34.80;;;;;;2249735;61;20368;-61
2021/09/19 08:24:16;0.00;0.00;0.62;0.00;0.00;0.62;2.77;2.30;;;25.80;34.80;;;;;;2249764;61;20685;-60
2021/09/19 08:27:03;0.00;0.00;0.62;0.00;0.00;0.62;2.60;2.40;;;25.80;34.80;;;;;;2249678;61;20713;-60
2021/09/19 08:29:47;0.00;0.00;0.62;0.00;0.00;0.62;3.70;2.57;;;25.80;34.80;;;;;;2249449;61;20432;-60
2021/09/19 08:32:32;0.00;0.00;0.62;0.00;0.00;0.62;2.40;2.13;;;25.80;34.70;;;;;;2249905;61;20454;-62
2021/09/19 08:35:18;0.00;0.00;0.62;0.00;0.00;0.62;2.63;2.10;;;25.90;34.80;;;;;;2249713;61;20610;-61
2021/09/19 08:38:04;0.00;0.00;0.62;0.00;0.00;0.62;2.30;1.93;;;25.80;34.70;;;;;;2249362;61;20365;-60
2021/09/19 08:40:50;0.00;0.00;0.62;0.00;0.00;0.62;3.10;2.33;;;25.90;34.80;;;;;;2250209;61;20572;-61
2021/09/19 08:43:35;0.00;0.00;0.62;0.00;0.00;0.62;3.57;2.70;;;25.90;34.70;;;;;;2249670;61;20408;-61
2021/09/19 08:46:24;0.00;0.00;0.62;0.00;0.00;0.62;2.40;2.00;;;25.90;34.60;;;;;;2249761;61;20408;-60
2021/09/19 08:49:08;0.00;0.00;0.62;0.00;0.00;0.62;3.40;2.30;;;25.90;34.60;;;;;;2249748;61;20361;-60
2021/09/19 08:51:54;0.00;0.00;0.62;0.00;0.00;0.62;3.10;2.80;;;25.90;34.70;;;;;;2249418;61;20392;-60
2021/09/19 08:54:39;0.00;0.00;0.62;0.00;0.00;0.62;2.43;2.20;;;25.90;34.60;;;;;;2249726;61;20372;-61
2021/09/19 08:57:24;0.00;0.00;0.62;0.00;0.00;0.62;3.20;2.30;;;25.90;34.70;;;;;;2249793;61;20357;-61
2021/09/19 09:00:13;0.00;0.00;0.62;0.00;0.00;0.62;2.97;2.67;;;25.90;34.60;;;;;;2249393;61;20369;-61
2021/09/19 09:02:57;0.00;0.00;0.62;0.00;0.00;0.62;2.73;2.20;;;25.90;34.60;;;;;;2249918;61;20421;-60
2021/09/19 09:05:41;0.00;0.00;0.62;0.00;0.00;0.62;2.47;2.27;;;25.90;34.60;;;;;;2249716;61;20431;-60
2021/09/19 09:08:28;0.00;0.00;0.62;0.00;0.00;0.62;3.57;2.63;;;25.90;34.60;;;;;;2249709;61;20622;-61
2021/09/19 09:11:14;0.00;0.00;0.62;0.00;0.00;0.62;3.40;2.53;;;25.90;34.60;;;;;;2249665;61;20373;-60
2021/09/19 09:14:02;0.00;0.00;0.62;0.00;0.00;0.62;3.33;2.17;;;25.90;34.60;;;;;;2249308;61;20404;-59
2021/09/19 09:16:49;0.00;0.00;0.62;0.00;0.00;0.62;4.47;2.53;;;25.90;34.60;;;;;;2249669;61;20668;-61
2021/09/19 09:19:39;0.00;0.00;0.62;0.00;0.00;0.62;3.60;2.43;;;25.90;34.50;;;;;;2249569;61;20568;-62
2021/09/19 09:22:26;0.00;0.00;0.62;0.00;0.00;0.62;4.30;2.97;;;25.90;34.40;;;;;;2249215;61;20361;-61
2021/09/19 09:25:15;0.00;0.00;0.62;0.00;0.00;0.62;4.20;3.63;;;25.90;34.30;;;;;;2249826;61;20384;-60
2021/09/19 09:28:00;0.00;0.00;0.62;0.00;0.00;0.62;3.67;2.60;;;25.90;34.30;;;;;;2250377;61;20481;-60
2021/09/19 09:30:57;0.00;0.00;0.62;0.00;0.00;0.62;3.53;2.63;;;25.80;34.00;;;;;;2250295;61;20581;-61
2021/09/19 09:33:55;0.00;0.00;0.62;0.00;0.00;0.62;3.13;2.80;;;25.90;34.00;;;;;;2250296;61;20381;-61
2021/09/19 09:36:44;0.00;0.00;0.62;0.00;0.00;0.62;3.37;3.07;;;25.80;34.50;;;;;;2250052;61;20833;-59
2021/09/19 09:39:34;0.00;0.00;0.62;0.00;0.00;0.62;4.00;3.17;;;25.80;33.70;;;;;;2250168;61;20704;-60
2021/09/19 09:42:23;0.00;0.00;0.62;0.00;0.00;0.62;4.13;3.20;;;25.80;33.50;;;;;;2250310;61;20420;-59
2021/09/19 09:45:10;0.00;0.00;0.62;0.00;0.00;0.62;4.10;3.63;;;25.80;33.50;;;;;;2249875;61;20392;-60
2021/09/19 09:47:55;0.00;0.00;0.62;0.00;0.00;0.62;5.27;3.67;;;25.80;33.40;;;;;;2250584;61;20380;-59
2021/09/19 09:50:39;0.00;0.00;0.62;0.00;0.00;0.62;5.60;4.00;;;25.80;33.30;;;;;;2249994;61;20456;-59
2021/09/19 09:53:25;0.00;0.00;0.62;0.00;0.00;0.62;5.37;3.80;;;25.70;33.00;;;;;;2250284;61;20391;-60
2021/09/19 09:56:10;0.00;0.00;0.62;0.00;0.00;0.62;3.63;3.23;;;25.70;32.90;;;;;;2250244;61;20399;-59
2021/09/19 09:58:57;0.00;0.00;0.62;0.00;0.00;0.62;4.33;3.57;;;25.70;32.80;;;;;;2249981;61;20364;-61
2021/09/19 10:01:43;0.00;0.00;0.62;0.00;0.00;0.62;3.80;3.30;;;25.60;32.60;;;;;;2250499;61;20595;-59
2021/09/19 10:04:28;0.00;0.00;0.62;0.00;0.00;0.62;3.70;3.30;;;25.60;32.50;;;;;;2250295;61;20352;-60
2021/09/19 10:07:13;0.00;0.00;0.62;0.00;0.00;0.62;3.70;3.17;;;25.60;32.60;;;;;;2250023;61;20360;-59
2021/09/19 10:09:58;0.00;0.00;0.62;0.00;0.00;0.62;3.80;3.37;;;25.60;32.60;;;;;;2250374;61;20412;-61
2021/09/19 10:12:46;0.00;0.00;0.62;0.00;0.00;0.62;3.53;3.03;;;25.50;32.40;;;;;;2249752;61;20488;-60
2021/09/19 10:15:32;0.00;0.00;0.62;0.00;0.00;0.62;3.50;3.00;;;25.50;32.30;;;;;;2250181;61;20384;-60
2021/09/19 10:18:18;0.00;0.00;0.62;0.00;0.00;0.62;3.37;3.00;;;25.50;32.30;;;;;;2250127;61;20477;-60
2021/09/19 10:21:04;0.00;0.00;0.62;0.00;0.00;0.62;3.53;2.97;;;25.50;32.30;;;;;;2249995;61;20416;-60
2021/09/19 10:23:50;0.00;0.00;0.62;0.00;0.00;0.62;3.30;2.80;;;25.50;32.30;;;;;;2250337;61;20361;-59
2021/09/19 10:26:50;0.00;0.00;0.62;0.00;0.00;0.62;4.40;3.43;;;25.50;32.20;;;;;;2250080;61;20357;-61
2021/09/19 10:29:38;0.00;0.00;0.62;0.00;0.00;0.62;3.57;3.03;;;25.40;32.00;;;;;;2249836;61;20764;-58
2021/09/19 10:32:35;0.00;0.00;0.62;0.00;0.00;0.62;3.63;2.70;;;25.40;31.90;;;;;;2250319;61;20361;-62
2021/09/19 10:35:28;0.00;0.00;0.62;0.00;0.00;0.62;3.10;2.60;;;25.40;31.70;;;;;;2249938;61;20503;-60
2021/09/19 10:38:12;0.00;0.00;0.62;0.00;0.00;0.62;3.00;2.70;;;25.40;31.60;;;;;;2250009;61;20712;-58
2021/09/19 10:41:15;0.00;0.00;0.62;0.00;0.00;0.62;2.90;2.33;;;25.30;31.40;;;;;;2250110;61;20364;-61
2021/09/19 10:44:03;0.00;0.00;0.62;0.00;0.00;0.62;3.70;2.60;;;25.30;31.40;;;;;;2249718;61;20356;-59
2021/09/19 10:46:49;0.00;0.00;0.62;0.00;0.00;0.62;3.60;2.90;;;25.30;32.00;;;;;;2250275;61;20380;-60
2021/09/19 10:49:36;0.00;0.00;0.62;0.00;0.00;0.62;3.20;2.60;;;25.20;31.30;;;;;;2249830;61;20404;-60
2021/09/19 10:52:39;0.00;0.00;0.62;0.00;0.00;0.62;3.97;2.37;;;25.20;31.30;;;;;;2250108;61;20360;-59